Time;durP1;ratioP1;P1;durP2;ratioP2;P2;SDS_P1;SDS_P2;PMS_P1;PMS_P2;Temp;Humidity;BMP_temperature;BMP_pressure;BME280_temperature;BME280_humidity;BME280_pressure;Samples;Min_cycle;Max_cycle;Signal;HPM_P1;HPM_P2
2022/08/31 00:05:00;;;;;;;3.13;1.30;;;;;;;16.40;100.00;164855.47;4990810;28;20100;-67
2022/08/31 00:07:30;;;;;;;2.03;1.30;;;;;;;16.45;100.00;164869.00;4991561;28;20477;-66
2022/08/31 00:09:56;;;;;;;7.45;1.73;;;;;;;16.44;100.00;164864.94;4990734;28;20049;-66
2022/08/31 00:12:21;;;;;;;3.17;1.88;;;;;;;16.42;100.00;164860.84;4991569;28;20026;-66
2022/08/31 00:14:47;;;;;;;5.25;1.35;;;;;;;16.43;100.00;164862.22;4990147;28;20490;-68
2022/08/31 00:17:13;;;;;;;2.50;1.35;;;;;;;16.41;100.00;164858.19;4992194;28;20030;-68
2022/08/31 00:19:39;;;;;;;5.32;1.55;;;;;;;16.40;100.00;164855.47;4989989;28;20042;-68
2022/08/31 00:22:04;;;;;;;2.90;1.40;;;;;;;16.37;100.00;164845.97;4991690;28;20545;-68
2022/08/31 00:24:30;;;;;;;4.05;1.63;;;;;;;16.35;100.00;164841.88;4990402;28;20449;-68
2022/08/31 00:26:56;;;;;;;1.60;1.45;;;;;;;16.29;100.00;164825.63;4991503;28;20034;-68
2022/08/31 00:29:21;;;;;;;6.63;3.03;;;;;;;16.24;100.00;164813.44;4989808;28;20050;-68
2022/08/31 00:31:47;;;;;;;3.92;1.70;;;;;;;16.24;100.00;164812.09;4991872;28;20037;-68
2022/08/31 00:34:12;;;;;;;6.03;1.60;;;;;;;16.16;100.00;164793.16;4990420;28;20409;-68
2022/08/31 00:36:38;;;;;;;1.98;1.35;;;;;;;16.17;100.00;164795.88;4991156;28;20027;-68
2022/08/31 00:39:05;;;;;;;1.60;1.50;;;;;;;16.15;100.00;164790.44;4990557;28;20063;-69
2022/08/31 00:41:35;;;;;;;1.52;1.33;;;;;;;16.12;100.00;164780.94;4991249;28;20026;-68
2022/08/31 00:44:04;;;;;;;2.95;1.50;;;;;;;16.54;100.00;164890.66;4989776;28;20030;-68
2022/08/31 00:46:32;;;;;;;3.28;1.20;;;;;;;16.13;100.00;164785.00;4991377;28;20064;-68
2022/08/31 00:49:33;;;;;;;2.58;2.38;;;;;;;16.12;100.00;164782.28;4990094;28;20037;-69
2022/08/31 00:52:03;;;;;;;1.48;1.05;;;;;;;16.08;100.00;164771.47;4969482;28;20554;-68
2022/08/31 00:54:57;;;;;;;4.50;2.55;;;;;;;16.03;100.00;164757.94;4986046;28;20042;-68
2022/08/31 00:57:28;;;;;;;1.55;1.20;;;;;;;16.00;100.00;164749.81;4991547;28;20018;-71
2022/08/31 00:59:54;;;;;;;1.75;1.10;;;;;;;15.97;100.00;164741.72;4990355;28;20045;-72
2022/08/31 01:02:20;;;;;;;1.73;1.40;;;;;;;15.94;100.00;164733.56;4995712;28;20030;-71
2022/08/31 01:04:45;;;;;;;2.95;1.58;;;;;;;15.90;100.00;164722.75;4993895;28;20042;-68
2022/08/31 01:07:10;;;;;;;1.58;1.10;;;;;;;15.87;100.00;164715.94;4994865;28;20085;-68
2022/08/31 01:09:39;;;;;;;3.88;1.30;;;;;;;15.82;100.00;164703.69;4993434;28;20046;-68
2022/08/31 01:12:07;;;;;;;1.63;1.52;;;;;;;15.81;100.00;164701.03;4995300;28;20026;-68
2022/08/31 01:14:34;;;;;;;2.97;1.42;;;;;;;15.77;100.00;164690.16;4993461;28;20049;-68
2022/08/31 01:17:00;;;;;;;1.70;1.60;;;;;;;15.75;100.00;164684.75;4993928;28;20076;-68
2022/08/31 01:19:30;;;;;;;1.70;1.50;;;;;;;15.73;100.00;164679.38;4993685;28;20077;-67
2022/08/31 01:21:55;;;;;;;1.25;1.10;;;;;;;15.70;100.00;164672.59;4994634;28;20490;-68
2022/08/31 01:24:22;;;;;;;2.63;1.15;;;;;;;15.68;100.00;164665.78;4993585;28;20129;-66
2022/08/31 01:26:48;;;;;;;2.10;1.75;;;;;;;15.62;100.00;164650.94;4994694;28;20803;-67
2022/08/31 01:29:13;;;;;;;1.00;1.00;;;;;;;15.57;100.00;164636.03;4993411;28;20058;-66
2022/08/31 01:31:42;;;;;;;2.10;1.90;;;;;;;15.51;100.00;164622.50;4994613;28;20031;-66
2022/08/31 01:34:08;;;;;;;3.33;1.40;;;;;;;15.51;100.00;164622.50;4993643;28;20042;-67
2022/08/31 01:36:36;;;;;;;5.53;1.00;;;;;;;15.49;100.00;164617.06;4994406;28;20061;-67
2022/08/31 01:39:04;;;;;;;2.28;1.42;;;;;;;15.45;100.00;164606.22;4993210;28;20421;-67
2022/08/31 01:41:30;;;;;;;1.75;1.65;;;;;;;15.44;100.00;164603.56;4994545;28;20533;-66
2022/08/31 01:43:56;;;;;;;2.15;1.48;;;;;;;15.39;100.00;164589.97;4992871;28;20030;-66
2022/08/31 01:46:21;;;;;;;0.80;0.80;;;;;;;15.38;100.00;164587.25;4994417;28;20022;-67
2022/08/31 01:48:47;;;;;;;4.20;1.98;;;;;;;15.34;100.00;164577.78;4993084;28;20104;-71
2022/08/31 01:51:15;;;;;;;1.23;0.82;;;;;;;15.27;100.00;164557.50;4994240;28;20497;-68
2022/08/31 01:53:44;;;;;;;2.47;1.33;;;;;;;15.25;100.00;164552.09;4994247;28;20030;-67
2022/08/31 01:56:14;;;;;;;0.70;0.70;;;;;;;15.24;100.00;164550.75;4993324;28;20035;-67
2022/08/31 01:58:40;;;;;;;4.45;2.88;;;;;;;15.21;100.00;164544.00;4994221;28;20105;-67
2022/08/31 02:01:05;;;;;;;5.47;1.20;;;;;;;15.19;100.00;164538.56;4992918;28;20066;-68
2022/08/31 02:03:30;;;;;;;2.67;1.42;;;;;;;15.15;100.00;164527.72;4994228;28;20018;-68
2022/08/31 02:05:56;;;;;;;1.58;1.23;;;;;;;15.11;100.00;164516.91;4992483;28;20410;-68
2022/08/31 02:08:21;;;;;;;2.60;1.13;;;;;;;15.09;100.00;164511.47;4994105;28;20092;-69
2022/08/31 02:10:47;;;;;;;3.30;1.10;;;;;;;15.07;100.00;164506.09;4992691;28;20244;-69
2022/08/31 02:13:12;;;;;;;2.03;1.02;;;;;;;15.07;100.00;164506.09;4993373;28;20030;-69
2022/08/31 02:15:38;;;;;;;2.28;1.20;;;;;;;15.05;100.00;164502.00;4992588;28;20375;-69
2022/08/31 02:18:04;;;;;;;5.22;1.20;;;;;;;15.01;100.00;164489.81;4993768;28;20433;-69
2022/08/31 02:20:29;;;;;;;6.28;2.10;;;;;;;14.98;100.00;164481.72;4992056;28;20038;-70
2022/08/31 02:22:54;;;;;;;1.45;1.25;;;;;;;14.94;100.00;164470.88;4994073;28;20038;-69
2022/08/31 02:25:20;;;;;;;1.95;1.13;;;;;;;14.89;100.00;164458.72;4992702;28;20038;-69
2022/08/31 02:27:45;;;;;;;1.67;1.58;;;;;;;14.85;100.00;164449.25;4993256;28;20481;-69
2022/08/31 02:30:14;;;;;;;1.33;0.90;;;;;;;14.81;100.00;164438.41;4992126;28;20070;-69
2022/08/31 02:32:40;;;;;;;1.58;1.13;;;;;;;14.77;100.00;164426.22;4993468;28;20034;-69
2022/08/31 02:35:07;;;;;;;3.13;0.90;;;;;;;14.71;100.00;164411.31;4992271;28;20505;-69
2022/08/31 02:37:32;;;;;;;1.20;1.10;;;;;;;14.64;100.00;164392.31;4993568;28;20631;-69
2022/08/31 02:39:57;;;;;;;4.07;1.05;;;;;;;14.66;100.00;164399.19;4992330;28;20073;-69
2022/08/31 02:42:23;;;;;;;3.72;1.00;;;;;;;14.62;100.00;164388.28;4993305;28;20029;-69
2022/08/31 02:44:48;;;;;;;2.40;1.42;;;;;;;14.58;100.00;164378.81;4991996;28;20046;-69
2022/08/31 02:47:13;;;;;;;2.13;1.42;;;;;;;14.58;100.00;164377.47;4993258;28;20678;-69
2022/08/31 02:49:39;;;;;;;1.30;1.20;;;;;;;14.52;100.00;164362.59;4991609;28;20038;-69
2022/08/31 02:52:04;;;;;;;2.08;1.05;;;;;;;14.33;100.00;164312.53;4993416;28;20071;-68
2022/08/31 02:54:29;;;;;;;4.50;2.20;;;;;;;14.41;100.00;164334.19;4991866;28;20041;-67
2022/08/31 02:56:55;;;;;;;1.92;1.15;;;;;;;14.38;100.00;164324.72;4993341;28;20035;-67
2022/08/31 02:59:20;;;;;;;1.27;1.02;;;;;;;14.32;100.00;164308.47;4991949;28;20428;-69
2022/08/31 03:01:46;;;;;;;1.98;1.48;;;;;;;14.31;100.00;164305.75;4992912;28;20029;-69
2022/08/31 03:04:12;;;;;;;4.25;1.08;;;;;;;14.27;100.00;164296.28;4991698;28;20045;-69
2022/08/31 03:06:37;;;;;;;3.05;1.17;;;;;;;14.25;100.00;164292.25;4992827;28;20514;-69
2022/08/31 03:09:03;;;;;;;5.20;0.90;;;;;;;14.27;100.00;164296.28;4991842;28;20042;-69
2022/08/31 03:11:29;;;;;;;1.77;1.08;;;;;;;14.25;100.00;164292.25;4992853;28;20030;-69
2022/08/31 03:13:54;;;;;;;1.60;1.27;;;;;;;14.20;100.00;164277.34;4991673;28;20035;-68
2022/08/31 03:16:20;;;;;;;1.75;1.38;;;;;;;14.19;100.00;164275.97;4992844;28;20026;-68
2022/08/31 03:18:47;;;;;;;1.52;1.25;;;;;;;14.08;100.00;164246.25;4990985;28;20026;-67
2022/08/31 03:21:13;;;;;;;1.52;1.13;;;;;;;14.10;100.00;164251.66;4993139;28;20386;-68
2022/08/31 03:23:38;;;;;;;4.65;1.30;;;;;;;14.08;100.00;164246.25;4991489;28;20037;-68
2022/08/31 03:26:04;;;;;;;1.08;0.90;;;;;;;14.04;100.00;164235.38;4991086;28;20042;-67
2022/08/31 03:28:31;;;;;;;1.23;0.90;;;;;;;14.00;100.00;164224.59;4992508;28;20030;-67
2022/08/31 03:30:57;;;;;;;2.15;1.00;;;;;;;13.96;100.00;164216.47;4991219;28;20441;-67
2022/08/31 03:33:22;;;;;;;1.13;1.13;;;;;;;13.95;100.00;164212.41;4992302;28;20025;-68
2022/08/31 03:35:48;;;;;;;2.17;1.30;;;;;;;13.87;100.00;164192.16;4990882;28;20049;-68
2022/08/31 03:38:14;;;;;;;1.67;1.52;;;;;;;13.84;100.00;164184.00;4992475;28;20080;-67
2022/08/31 03:40:41;;;;;;;2.17;1.15;;;;;;;13.80;100.00;164174.53;4990612;28;20465;-67
2022/08/31 03:43:10;;;;;;;1.55;1.10;;;;;;;13.75;100.00;164161.03;4992351;28;20041;-67
2022/08/31 03:45:35;;;;;;;;;;;;;;;13.78;100.00;164167.78;4991169;28;20510;-67
2022/08/31 03:48:03;;;;;;;0.93;0.93;;;;;;;13.77;100.00;164166.47;4992259;28;19959;-68
2022/08/31 03:50:28;;;;;;;2.95;1.08;;;;;;;13.74;100.00;164156.94;4990515;28;20096;-67
2022/08/31 03:52:54;;;;;;;1.15;1.02;;;;;;;13.74;100.00;164156.94;4992375;28;20482;-67
2022/08/31 03:55:19;;;;;;;3.65;1.23;;;;;;;13.70;100.00;164146.16;4990357;28;20034;-68
2022/08/31 03:57:45;;;;;;;4.22;1.17;;;;;;;13.70;100.00;164147.47;4991853;28;20049;-67
2022/08/31 04:00:10;;;;;;;0.88;0.88;;;;;;;13.70;100.00;164146.16;4990791;28;20093;-67
2022/08/31 04:02:38;;;;;;;1.35;1.25;;;;;;;13.65;100.00;164133.97;4992035;28;20095;-67
2022/08/31 04:05:04;;;;;;;1.80;1.65;;;;;;;13.63;100.00;164129.94;4990564;28;20050;-67
2022/08/31 04:07:29;;;;;;;3.00;1.40;;;;;;;13.66;100.00;164135.34;4991535;28;20030;-67
2022/08/31 04:09:55;;;;;;;1.35;1.25;;;;;;;13.60;100.00;164121.78;4990771;28;20053;-67
2022/08/31 04:12:20;;;;;;;2.78;0.93;;;;;;;13.56;100.00;164111.00;4991359;28;20073;-66
2022/08/31 04:14:45;;;;;;;1.45;0.93;;;;;;;13.54;100.00;164105.56;4990391;28;20046;-66
2022/08/31 04:17:11;;;;;;;0.82;0.82;;;;;;;13.51;100.00;164097.50;4991799;28;20081;-66
2022/08/31 04:19:39;;;;;;;3.40;1.20;;;;;;;13.51;100.00;164097.50;4989385;28;20436;-71
2022/08/31 04:22:04;;;;;;;2.53;1.35;;;;;;;13.44;100.00;164078.56;4991604;28;20535;-71
2022/08/31 04:24:30;;;;;;;1.48;1.38;;;;;;;13.41;100.00;164070.44;4989992;28;20042;-70
2022/08/31 04:26:55;;;;;;;1.20;1.10;;;;;;;13.39;100.00;164065.00;4990905;28;20030;-71
2022/08/31 04:29:22;;;;;;;1.40;1.27;;;;;;;13.40;100.00;164067.72;4990466;28;20065;-70
2022/08/31 04:31:47;;;;;;;1.15;0.95;;;;;;;13.36;100.00;164056.88;4991596;28;20461;-71
2022/08/31 04:34:13;;;;;;;2.33;0.90;;;;;;;13.36;100.00;164058.19;4991341;28;20037;-71
2022/08/31 04:36:39;;;;;;;3.17;1.60;;;;;;;13.32;100.00;164048.75;4989738;28;20145;-71
2022/08/31 04:39:06;;;;;;;1.30;0.95;;;;;;;13.28;100.00;164037.94;4991140;28;20113;-71
2022/08/31 04:41:34;;;;;;;1.60;1.50;;;;;;;13.25;100.00;164029.81;4989537;28;20045;-70
2022/08/31 04:44:01;;;;;;;3.83;1.10;;;;;;;13.24;100.00;164027.09;4990833;28;20076;-69
2022/08/31 04:46:28;;;;;;;1.75;0.77;;;;;;;13.23;100.00;164024.38;4990318;28;20658;-69
2022/08/31 04:48:53;;;;;;;0.88;0.88;;;;;;;13.21;100.00;164019.03;4991353;28;20015;-66
2022/08/31 04:51:28;;;;;;;1.45;1.10;;;;;;;13.24;100.00;164027.09;4990212;28;20035;-66
2022/08/31 04:53:54;;;;;;;2.42;1.30;;;;;;;13.24;100.00;164027.09;4991488;28;20486;-66
2022/08/31 04:56:26;;;;;;;1.55;0.90;;;;;;;13.21;100.00;164019.03;4989871;28;20043;-67
2022/08/31 04:59:04;;;;;;;5.43;1.40;;;;;;;13.24;100.00;164027.09;4991380;28;20097;-66
2022/08/31 05:01:33;;;;;;;7.07;1.20;;;;;;;13.25;100.00;164028.47;4989997;28;20034;-66
2022/08/31 05:03:59;;;;;;;5.82;1.40;;;;;;;13.24;100.00;164027.09;4991138;28;20590;-66
2022/08/31 05:06:30;;;;;;;6.90;1.35;;;;;;;13.23;100.00;164024.38;4990102;28;20131;-66
2022/08/31 05:08:58;;;;;;;1.65;1.00;;;;;;;13.21;100.00;164019.03;4991466;28;20031;-65
2022/08/31 05:11:25;;;;;;;1.80;0.90;;;;;;;13.22;100.00;164020.34;4989591;28;20583;-71
2022/08/31 05:13:51;;;;;;;2.92;1.05;;;;;;;13.21;100.00;164019.03;4991349;28;20034;-69
2022/08/31 05:16:18;;;;;;;3.97;1.00;;;;;;;13.19;100.00;164013.59;4989978;28;20046;-68
2022/08/31 05:18:45;;;;;;;2.05;1.05;;;;;;;13.23;100.00;164024.38;4991010;28;20378;-69
2022/08/31 05:21:14;;;;;;;2.28;0.85;;;;;;;13.24;100.00;164025.78;4990070;28;20062;-70
2022/08/31 05:23:41;;;;;;;0.93;0.93;;;;;;;13.24;100.00;164027.09;4991159;28;20030;-68
2022/08/31 05:26:08;;;;;;;1.65;1.25;;;;;;;13.25;100.00;164028.47;4989601;28;20038;-69
2022/08/31 05:28:34;;;;;;;3.40;1.20;;;;;;;13.27;100.00;164035.22;4990882;28;20022;-71
2022/08/31 05:31:00;;;;;;;4.10;1.83;;;;;;;13.28;100.00;164037.94;4989699;28;20520;-61
2022/08/31 05:33:28;;;;;;;3.10;1.40;;;;;;;13.33;100.00;164051.44;4990397;28;20030;-60
2022/08/31 05:35:53;;;;;;;1.90;0.95;;;;;;;13.35;100.00;164055.50;4989873;28;20042;-62
2022/08/31 05:38:18;;;;;;;1.00;1.00;;;;;;;13.39;100.00;164065.00;4991146;28;20034;-58
2022/08/31 05:40:54;;;;;;;6.50;0.98;;;;;;;13.43;100.00;164075.84;4989239;28;20045;-58
2022/08/31 05:43:21;;;;;;;4.13;1.13;;;;;;;13.47;100.00;164086.66;4991231;28;20018;-58
2022/08/31 05:45:46;;;;;;;4.30;1.17;;;;;;;13.46;100.00;164083.94;4989575;28;20053;-58
2022/08/31 05:48:12;;;;;;;1.33;1.10;;;;;;;13.50;100.00;164094.78;4992851;28;20023;-58
2022/08/31 05:50:37;;;;;;;7.70;1.20;;;;;;;13.49;100.00;164092.06;4992921;28;20510;-58
2022/08/31 05:53:03;;;;;;;3.13;1.60;;;;;;;13.46;100.00;164083.94;4994686;28;20018;-58
2022/08/31 05:55:29;;;;;;;5.10;1.10;;;;;;;13.48;100.00;164089.34;4992539;28;20104;-58
2022/08/31 05:57:54;;;;;;;5.15;1.30;;;;;;;13.47;100.00;164086.66;4994342;28;20041;-58
2022/08/31 06:00:20;;;;;;;5.25;2.08;;;;;;;13.46;100.00;164083.94;4993098;28;20042;-58
2022/08/31 06:02:45;;;;;;;22.00;2.30;;;;;;;13.57;100.00;164113.72;4993756;28;20026;-57
2022/08/31 06:05:10;;;;;;;2.00;1.38;;;;;;;13.61;100.00;164123.19;4993071;28;20049;-58
2022/08/31 06:07:36;;;;;;;5.93;1.40;;;;;;;13.62;100.00;164125.88;4993924;28;20410;-58
2022/08/31 06:10:01;;;;;;;3.67;1.38;;;;;;;13.64;100.00;164132.63;4992491;28;20038;-58
2022/08/31 06:12:27;;;;;;;13.73;2.75;;;;;;;13.72;100.00;164151.56;4994324;28;20026;-57
2022/08/31 06:14:54;;;;;;;8.77;1.98;;;;;;;13.71;100.00;164148.84;4992679;28;20065;-57
2022/08/31 06:17:19;;;;;;;6.45;1.55;;;;;;;13.70;100.00;164146.16;4994053;28;20377;-58
2022/08/31 06:19:45;;;;;;;5.68;3.05;;;;;;;13.72;100.00;164152.91;4992612;28;20049;-58
2022/08/31 06:22:10;;;;;;;7.30;2.60;;;;;;;13.73;100.00;164155.63;4994084;28;20072;-57
2022/08/31 06:24:37;;;;;;;9.15;2.67;;;;;;;13.73;100.00;164154.28;4992226;28;20042;-58
2022/08/31 06:27:04;;;;;;;16.77;4.07;;;;;;;13.72;100.00;164152.91;4993891;28;20077;-58
2022/08/31 06:29:30;;;;;;;11.90;4.57;;;;;;;13.79;100.00;164170.50;4991981;28;20544;-58
2022/08/31 06:31:55;;;;;;;5.95;2.28;;;;;;;13.82;100.00;164178.59;4993508;28;20441;-58
2022/08/31 06:34:22;;;;;;;6.63;1.27;;;;;;;13.81;100.00;164175.94;4992383;28;20498;-58
2022/08/31 06:36:47;;;;;;;3.22;1.50;;;;;;;13.79;100.00;164170.50;4993400;28;20474;-57
2022/08/31 06:39:13;;;;;;;3.22;1.42;;;;;;;13.70;100.00;164147.47;4992129;28;20052;-58
2022/08/31 06:41:39;;;;;;;3.45;1.30;;;;;;;13.76;100.00;164163.75;4997226;28;20112;-59
2022/08/31 06:44:08;;;;;;;2.63;1.73;;;;;;;13.76;100.00;164162.38;5010542;28;20578;-59
2022/08/31 06:46:35;;;;;;;2.97;1.27;;;;;;;13.69;100.00;164143.44;5006558;28;20030;-59
2022/08/31 06:49:01;;;;;;;5.70;1.70;;;;;;;13.79;100.00;164170.50;4991819;28;20030;-58
2022/08/31 06:51:26;;;;;;;4.63;1.67;;;;;;;13.79;100.00;164170.50;4991812;28;20378;-59
2022/08/31 06:53:52;;;;;;;6.88;2.78;;;;;;;13.81;100.00;164175.94;4991669;28;20030;-59
2022/08/31 06:56:22;;;;;;;1.95;1.50;;;;;;;13.95;100.00;164213.78;4993465;28;20102;-59
2022/08/31 06:58:48;;;;;;;16.05;2.70;;;;;;;13.97;100.00;164217.84;4991413;28;20073;-58
2022/08/31 07:01:17;;;;;;;12.70;1.73;;;;;;;14.09;100.00;164250.28;4993285;28;20405;-59
2022/08/31 07:03:44;;;;;;;4.22;1.95;;;;;;;14.27;100.00;164297.63;4992025;28;20027;-57
2022/08/31 07:06:19;;;;;;;10.13;4.43;;;;;;;14.38;100.00;164324.72;4992894;28;20081;-59
2022/08/31 07:08:46;;;;;;;12.40;2.97;;;;;;;14.50;100.00;164357.16;4991363;28;20084;-58
2022/08/31 07:11:18;;;;;;;32.03;8.73;;;;;;;14.56;100.00;164373.38;4993124;28;20033;-59
2022/08/31 07:13:44;;;;;;;6.30;2.58;;;;;;;14.44;100.00;164340.94;4991248;28;20105;-59
2022/08/31 07:16:12;;;;;;;4.35;1.70;;;;;;;14.44;100.00;164342.25;4992722;28;20042;-58
2022/08/31 07:18:39;;;;;;;15.57;6.72;;;;;;;14.56;100.00;164373.38;4992511;28;20122;-59
2022/08/31 07:21:27;;;;;;;5.10;1.80;;;;;;;14.74;100.00;164419.47;4991045;28;20588;-59
2022/08/31 07:23:53;;;;;;;8.60;3.15;;;;;;;15.36;100.00;164581.88;4990877;28;20026;-58
2022/08/31 07:26:24;;;;;;;1.75;1.63;;;;;;;16.25;100.00;164814.81;4992799;28;20486;-58
2022/08/31 07:28:52;;;;;;;3.30;1.90;;;;;;;16.96;100.00;165003.19;4991052;28;20033;-58
2022/08/31 07:31:21;;;;;;;6.88;2.65;;;;;;;17.13;100.00;165046.50;4992290;28;20053;-59
2022/08/31 07:33:48;;;;;;;2.28;1.23;;;;;;;17.02;100.00;165016.72;4990947;28;20026;-58
2022/08/31 07:36:15;;;;;;;4.18;1.20;;;;;;;17.08;100.00;165034.34;4992784;28;20057;-58
2022/08/31 07:44:11;;;;;;;10.32;3.58;;;;;;;17.32;100.00;165096.63;4991401;28;20042;-59
2022/08/31 07:46:37;;;;;;;4.70;1.90;;;;;;;17.26;100.00;165081.75;4991982;28;20029;-59
2022/08/31 07:49:11;;;;;;;4.05;1.50;;;;;;;17.10;100.00;165039.72;4990975;28;20043;-59
2022/08/31 07:51:37;;;;;;;5.70;1.88;;;;;;;17.27;100.00;165084.50;4992171;28;20026;-59
2022/08/31 07:54:05;;;;;;;5.82;1.67;;;;;;;17.27;100.00;165084.50;4990598;28;20053;-59
2022/08/31 07:56:31;;;;;;;;;;;;;;;17.43;100.00;165126.47;4992696;28;20022;-59
2022/08/31 07:58:57;;;;;;;2.35;1.50;;;;;;;17.60;100.00;165169.84;4990949;28;20029;-59
2022/08/31 08:01:22;;;;;;;6.97;2.75;;;;;;;17.70;100.00;165196.94;4992020;28;20030;-58
2022/08/31 08:03:49;;;;;;;3.03;2.03;;;;;;;17.40;100.00;165117.00;4989280;28;20042;-59
2022/08/31 08:06:15;;;;;;;3.78;1.90;;;;;;;17.53;100.00;165150.88;4992386;28;20385;-59
2022/08/31 08:08:42;;;;;;;4.32;1.52;;;;;;;17.61;100.00;165172.53;4991408;28;20397;-59
2022/08/31 08:11:19;;;;;;;2.65;1.95;;;;;;;17.77;100.00;165215.91;4990210;28;20501;-59
2022/08/31 08:13:45;;;;;;;3.53;1.45;;;;;;;17.70;100.00;165196.94;4990750;28;20022;-58
2022/08/31 08:16:10;;;;;;;1.67;1.42;;;;;;;17.93;100.00;165256.59;4991859;28;20124;-59
2022/08/31 08:18:35;;;;;;;3.47;1.10;;;;;;;17.94;100.00;165259.31;4991684;28;20030;-58
2022/08/31 08:21:01;;;;;;;3.03;1.55;;;;;;;18.08;100.00;165297.31;4990506;28;20043;-58
2022/08/31 08:23:26;;;;;;;7.18;2.70;;;;;;;18.39;100.00;165378.66;4991786;28;20026;-59
2022/08/31 08:25:52;;;;;;;5.78;1.85;;;;;;;18.32;100.00;165358.31;4990264;28;20046;-59
2022/08/31 08:28:18;;;;;;;2.65;1.50;;;;;;;18.19;100.00;165325.78;4989779;28;20498;-59
2022/08/31 08:30:46;;;;;;;2.47;1.38;;;;;;;17.99;100.00;165272.91;4997348;28;20069;-58
2022/08/31 08:33:12;;;;;;;4.57;2.42;;;;;;;17.98;100.00;165270.22;4991551;28;20022;-59
2022/08/31 08:35:37;;;;;;;2.17;1.58;;;;;;;18.07;100.00;165294.59;5005760;28;20104;-59
2022/08/31 08:38:03;;;;;;;2.30;1.60;;;;;;;17.98;100.00;165270.22;5010864;28;20104;-59
2022/08/31 08:40:35;;;;;;;4.97;1.63;;;;;;;18.22;100.00;165332.56;5009717;28;20460;-59
2022/08/31 08:43:03;;;;;;;3.17;1.20;;;;;;;18.37;100.00;165373.22;5011498;28;20100;-59
2022/08/31 08:45:30;;;;;;;4.43;1.65;;;;;;;18.60;100.00;165432.91;5009509;28;20065;-59
2022/08/31 08:47:57;;;;;;;6.53;1.08;;;;;;;18.72;100.00;165464.09;5011170;28;20030;-59
2022/08/31 08:50:26;;;;;;;7.00;1.83;;;;;;;18.63;100.00;165441.06;5009929;28;20554;-59
2022/08/31 08:52:55;;;;;;;5.00;1.48;;;;;;;18.80;100.00;165485.81;5010989;28;20358;-59
2022/08/31 08:55:25;;;;;;;;;;;;;;;19.13;100.00;165571.31;5010354;28;20566;-58
2022/08/31 08:57:51;;;;;;;2.03;1.20;;;;;;;19.24;100.00;165601.16;5010935;28;19999;-59
2022/08/31 09:00:24;;;;;;;15.15;2.08;;;;;;;19.45;100.00;165656.75;5009537;28;20038;-59
2022/08/31 09:02:56;;;;;;;2.67;1.50;;;;;;;19.68;100.00;165715.13;5010960;28;20022;-59
2022/08/31 09:05:58;;;;;;;6.60;2.00;;;;;;;19.73;100.00;165728.69;5009813;28;20046;-59
2022/08/31 09:08:41;;;;;;;22.17;2.03;;;;;;;19.73;100.00;165728.69;5010566;28;20115;-59
2022/08/31 09:11:26;;;;;;;3.78;1.50;;;;;;;19.80;100.00;165747.69;5009651;28;20037;-59
2022/08/31 09:14:17;;;;;;;6.63;2.45;;;;;;;19.91;100.00;165777.63;5009190;28;20474;-59
2022/08/31 09:16:52;;;;;;;2.20;1.35;;;;;;;20.25;100.00;165867.16;5011067;28;20384;-59
2022/08/31 09:19:18;;;;;;;1.67;1.40;;;;;;;20.22;100.00;165859.00;5009505;28;20040;-59
2022/08/31 09:21:48;;;;;;;1.80;1.50;;;;;;;20.24;100.00;165864.44;5012534;28;20030;-59
2022/08/31 09:24:18;;;;;;;7.78;1.65;;;;;;;20.65;100.00;165970.34;5013338;28;20092;-59
2022/08/31 09:26:49;;;;;;;6.75;1.42;;;;;;;20.60;100.00;165959.47;5014488;28;20021;-59
2022/08/31 09:29:30;;;;;;;3.58;1.15;;;;;;;20.89;100.00;166035.53;5012746;28;20077;-59
2022/08/31 09:32:06;;;;;;;1.20;1.05;;;;;;;20.72;100.00;165989.34;5014498;28;20504;-59
2022/08/31 09:34:36;;;;;;;9.38;1.50;;;;;;;21.01;100.00;166066.75;5013012;28;20065;-59
2022/08/31 09:37:19;;;;;;;1.17;1.08;;;;;;;21.14;100.00;166100.72;5014456;28;20104;-59
2022/08/31 09:39:47;;;;;;;2.22;1.30;;;;;;;21.42;100.00;166174.03;5012832;28;20096;-59
2022/08/31 09:42:29;;;;;;;3.17;1.10;;;;;;;21.68;100.00;166243.38;5014721;28;20022;-59
2022/08/31 09:44:58;;;;;;;5.68;1.60;;;;;;;21.70;100.00;166247.47;5012817;28;20049;-59
2022/08/31 09:47:51;;;;;;;8.88;1.20;;;;;;;21.86;100.00;166290.91;5014346;28;20080;-59
2022/08/31 09:50:34;;;;;;;2.55;1.23;;;;;;;22.03;100.00;166334.38;5012959;28;20102;-59
2022/08/31 09:56:15;;;;;;;4.80;1.48;;;;;;;22.73;100.00;166519.25;5012425;28;20168;-58
2022/08/31 09:58:40;;;;;;;;;;;;;;;22.28;100.00;166399.63;5014329;28;20037;-59
2022/08/31 10:01:12;;;;;;;5.30;1.07;;;;;;;22.30;100.00;166405.06;5012821;28;19913;-59
2022/08/31 10:03:43;;;;;;;7.35;1.10;;;;;;;22.39;100.00;166429.53;5013784;28;20540;-58
2022/08/31 10:06:25;;;;;;;4.25;1.33;;;;;;;22.33;100.00;166413.19;5012308;28;20065;-59
2022/08/31 10:08:58;;;;;;;3.42;1.40;;;;;;;21.79;100.00;166271.91;4994917;28;20030;-59
2022/08/31 10:11:28;;;;;;;5.82;1.25;;;;;;;21.43;100.00;166176.78;4993463;28;20027;-59
2022/08/31 10:14:06;;;;;;;4.30;1.30;;;;;;;21.65;100.00;166235.25;4993125;28;20421;-59
2022/08/31 10:16:36;;;;;;;;;;;;;;;21.96;100.00;166315.38;4994476;28;20111;-59
2022/08/31 10:19:12;;;;;;;1.67;1.20;;;;;;;21.94;100.00;166309.94;4992714;28;19913;-59
2022/08/31 10:21:58;;;;;;;4.45;1.38;;;;;;;21.94;100.00;166309.94;4992973;28;20105;-59
2022/08/31 10:24:32;;;;;;;7.38;2.78;;;;;;;21.94;100.00;166309.94;4992226;28;20042;-59
2022/08/31 10:27:13;;;;;;;2.30;1.33;;;;;;;21.92;100.00;166304.53;4994149;28;20039;-59
2022/08/31 10:29:53;;;;;;;1.50;1.10;;;;;;;22.12;100.00;166358.84;4991515;28;20078;-59
2022/08/31 10:32:26;;;;;;;3.33;1.33;;;;;;;22.36;100.00;166421.38;4993247;28;20056;-59
2022/08/31 10:35:04;;;;;;;9.85;1.50;;;;;;;22.02;100.00;166333.06;4991656;28;20045;-59
2022/08/31 10:37:42;;;;;;;2.40;1.40;;;;;;;22.45;100.00;166444.50;4992921;28;20023;-59
2022/08/31 10:40:22;;;;;;;3.47;0.90;;;;;;;22.37;100.00;166424.09;4991662;28;20043;-58
2022/08/31 10:42:58;;;;;;;12.48;2.30;;;;;;;22.05;100.00;166339.84;4993216;28;20049;-58
2022/08/31 10:45:27;;;;;;;4.25;1.83;;;;;;;22.23;100.00;166386.06;4991812;28;20041;-58
2022/08/31 10:47:55;;;;;;;2.90;2.38;;;;;;;22.12;100.00;166358.84;4993336;28;20037;-59
2022/08/31 10:50:46;;;;;;;3.58;1.30;;;;;;;22.44;100.00;166441.78;4991120;28;20452;-59
2022/08/31 10:53:36;;;;;;;2.75;0.93;;;;;;;22.58;100.00;166479.81;4991575;28;20030;-59
2022/08/31 10:56:13;;;;;;;4.25;1.08;;;;;;;22.39;100.00;166429.53;4991361;28;20070;-58
2022/08/31 10:59:01;;;;;;;2.05;1.58;;;;;;;22.08;100.00;166346.63;4993031;28;20104;-58
2022/08/31 11:01:34;;;;;;;7.10;1.40;;;;;;;22.24;100.00;166390.13;4992276;28;20129;-59
2022/08/31 11:04:23;;;;;;;2.92;1.25;;;;;;;22.21;100.00;166380.59;4991618;28;20033;-59
2022/08/31 11:07:06;;;;;;;3.15;2.08;;;;;;;22.81;100.00;166541.00;4987499;28;20121;-59
2022/08/31 11:09:40;;;;;;;2.70;1.38;;;;;;;23.13;100.00;166623.91;4991710;28;20048;-59
2022/08/31 11:12:10;;;;;;;7.45;1.40;;;;;;;22.87;100.00;166554.59;4993222;28;20022;-59
2022/08/31 11:14:52;;;;;;;8.48;2.50;;;;;;;22.46;100.00;166448.56;4991478;28;20046;-59
2022/08/31 11:17:43;;;;;;;18.63;1.75;;;;;;;22.53;100.00;166464.88;4993397;28;20073;-58
2022/08/31 11:20:27;;;;;;;7.40;1.80;;;;;;;22.75;100.00;166524.66;4991138;28;20077;-59
2022/08/31 11:23:05;;;;;;;2.40;1.60;;;;;;;22.71;100.00;166513.81;4992916;28;20513;-59
2022/08/31 11:25:55;;;;;;;30.10;8.23;;;;;;;23.08;100.00;166611.66;4991291;28;20042;-59
2022/08/31 11:28:32;;;;;;;7.82;1.58;;;;;;;23.42;100.00;166701.41;4992349;28;20434;-59
2022/08/31 11:31:00;;;;;;;9.60;1.80;;;;;;;23.25;100.00;166655.22;4991363;28;20081;-59
2022/08/31 11:33:28;;;;;;;1.08;0.98;;;;;;;23.59;100.00;166744.94;4992937;28;20018;-59
2022/08/31 11:36:09;;;;;;;4.43;1.23;;;;;;;23.52;100.00;166725.91;4990799;28;20065;-59
2022/08/31 11:38:42;;;;;;;3.53;1.20;;;;;;;23.63;100.00;166755.84;4992625;28;20085;-59